createdAt,value
2023-03-23T15:59:27.850Z,17.14
2023-03-23T16:02:02.236Z,17.03
2023-03-23T16:04:33.941Z,16.90
2023-03-23T16:07:10.901Z,16.78
2023-03-23T16:09:45.922Z,16.66
2023-03-23T16:12:19.642Z,16.54
2023-03-23T16:14:53.869Z,16.46
2023-03-23T16:17:27.286Z,16.37
2023-03-23T16:20:01.394Z,16.27
2023-03-23T16:22:35.159Z,16.20
2023-03-23T16:25:09.660Z,16.15
2023-03-23T16:27:49.823Z,16.09
2023-03-23T16:30:27.840Z,16.02
2023-03-23T16:33:01.893Z,15.95
2023-03-23T16:35:33.196Z,15.88
2023-03-23T16:38:08.202Z,15.81
2023-03-23T16:40:43.431Z,15.75
2023-03-23T16:43:15.829Z,15.97
2023-03-23T16:45:50.410Z,17.11
2023-03-23T16:48:25.024Z,18.21
2023-03-23T16:50:59.698Z,18.81
2023-03-23T16:53:33.709Z,18.36
2023-03-23T16:56:08.748Z,17.80
2023-03-23T16:58:41.829Z,17.40
2023-03-23T17:01:21.768Z,17.06
2023-03-23T17:03:54.577Z,16.75
2023-03-23T17:06:32.154Z,16.52
2023-03-23T17:09:06.891Z,16.33
2023-03-23T17:11:44.469Z,16.15
2023-03-23T17:14:31.178Z,15.98
2023-03-23T17:17:07.037Z,15.84
2023-03-23T17:19:44.622Z,15.72
2023-03-23T17:22:21.189Z,15.60
2023-03-23T17:24:58.582Z,15.75
2023-03-23T17:27:42.945Z,16.89
2023-03-23T17:30:24.324Z,17.98
2023-03-23T17:33:02.051Z,18.53
2023-03-23T17:35:39.905Z,18.00
2023-03-23T17:38:14.229Z,17.33
2023-03-23T17:40:58.988Z,16.80
2023-03-23T17:43:36.297Z,16.39
2023-03-23T17:46:14.002Z,16.07
2023-03-23T17:48:48.692Z,15.82
2023-03-23T17:51:33.553Z,15.92
2023-03-23T17:54:13.917Z,16.98
2023-03-23T17:56:56.546Z,18.05
2023-03-23T17:59:32.681Z,18.66
2023-03-23T18:02:09.875Z,19.04
2023-03-23T18:04:51.653Z,18.50
2023-03-23T18:07:31.705Z,17.85
2023-03-23T18:10:06.167Z,17.36
2023-03-23T18:12:57.346Z,16.97
2023-03-23T18:15:39.330Z,16.60
2023-03-23T18:18:21.634Z,16.29
2023-03-23T18:21:19.813Z,16.00
2023-03-23T18:23:59.555Z,15.71
2023-03-23T18:27:01.210Z,15.80
2023-03-23T18:29:43.208Z,17.02
2023-03-23T18:32:19.988Z,17.98
2023-03-23T18:35:07.097Z,18.39
2023-03-23T18:37:49.813Z,17.81
2023-03-23T18:40:44.902Z,17.17
2023-03-23T18:43:29.676Z,16.66
2023-03-23T18:46:15.131Z,16.30
2023-03-23T18:48:55.636Z,16.02
2023-03-23T18:51:40.886Z,15.79
2023-03-23T18:54:17.762Z,15.89
2023-03-23T18:57:09.314Z,16.94
2023-03-23T18:59:47.373Z,18.00
2023-03-23T19:02:27.425Z,18.47
2023-03-23T19:05:19.400Z,17.93
2023-03-23T19:08:00.464Z,17.18
2023-03-23T19:10:44.699Z,16.70
2023-03-23T19:13:31.709Z,16.34
2023-03-23T19:16:20.701Z,16.02
2023-03-23T19:19:08.517Z,15.78
2023-03-23T19:22:03.533Z,15.59
2023-03-23T19:24:41.213Z,15.42
2023-03-23T19:27:24.214Z,15.30
2023-03-23T19:30:07.443Z,15.46
2023-03-23T19:32:54.368Z,16.67
2023-03-23T19:35:42.574Z,17.81
2023-03-23T19:38:26.028Z,18.37
2023-03-23T19:41:19.471Z,17.80
2023-03-23T19:44:05.872Z,17.14
2023-03-23T19:46:50.919Z,16.65
2023-03-23T19:50:02.862Z,16.25
2023-03-23T19:52:45.479Z,15.85
2023-03-23T19:55:30.860Z,15.55
2023-03-23T19:58:12.734Z,15.26
2023-03-23T20:00:55.858Z,15.29
2023-03-23T20:03:38.995Z,16.35
2023-03-23T20:06:29.190Z,17.33
2023-03-23T20:09:09.262Z,17.81
2023-03-23T20:11:50.332Z,17.22
2023-03-23T20:14:38.365Z,16.56
2023-03-23T20:17:23.625Z,16.03
2023-03-23T20:20:06.406Z,15.61
2023-03-23T20:23:01.847Z,15.25
2023-03-23T20:25:53.734Z,14.89
2023-03-23T20:28:37.394Z,14.89
2023-03-23T20:31:37.928Z,15.97
2023-03-23T20:34:32.616Z,16.94
2023-03-23T20:37:21.065Z,17.41
2023-03-23T20:40:15.962Z,17.48
2023-03-23T20:43:04.818Z,16.70
2023-03-23T20:46:01.970Z,15.94
2023-03-23T20:49:01.091Z,15.34
2023-03-23T20:51:51.051Z,14.79
2023-03-23T20:54:53.120Z,14.37
2023-03-23T20:57:44.842Z,13.97
2023-03-23T21:00:29.809Z,13.98
2023-03-23T21:03:40.046Z,15.04
2023-03-23T21:06:37.332Z,16.03
2023-03-23T21:09:37.650Z,16.65
2023-03-23T21:12:31.009Z,16.84
2023-03-23T21:15:31.448Z,15.95
2023-03-23T21:18:45.483Z,15.04
2023-03-23T21:21:57.254Z,14.35
2023-03-23T21:25:11.943Z,14.21
2023-03-23T21:28:24.756Z,15.37
2023-03-23T21:31:35.729Z,16.20
2023-03-23T21:34:27.659Z,16.78
2023-03-23T21:37:29.621Z,16.90
2023-03-23T21:40:28.931Z,16.01
2023-03-23T21:43:29.454Z,15.18
2023-03-23T21:46:41.350Z,14.50
2023-03-23T21:49:46.897Z,14.06
2023-03-23T21:52:51.320Z,14.17
2023-03-23T21:56:06.916Z,15.53
2023-03-23T21:59:04.878Z,16.60
2023-03-23T22:02:02.309Z,16.92
2023-03-23T22:04:54.577Z,16.15
2023-03-23T22:07:49.373Z,15.44
2023-03-23T22:10:38.321Z,14.88
2023-03-23T22:13:33.425Z,14.46
2023-03-23T22:16:21.200Z,14.12
2023-03-23T22:19:16.580Z,14.19
2023-03-23T22:22:08.799Z,15.38
2023-03-23T22:25:03.801Z,16.46
2023-03-23T22:27:58.598Z,16.87
2023-03-23T22:31:03.788Z,16.16
2023-03-23T22:33:49.632Z,15.37
2023-03-23T22:36:51.800Z,14.85
2023-03-23T22:39:51.924Z,14.34
2023-03-23T22:43:04.125Z,13.93
2023-03-23T22:46:04.200Z,13.50
2023-03-23T22:49:24.646Z,13.59
2023-03-23T22:52:37.060Z,15.02
2023-03-23T22:55:37.482Z,16.04
2023-03-23T22:58:38.217Z,16.37
2023-03-23T23:01:36.538Z,15.54
2023-03-23T23:04:51.774Z,14.76
2023-03-23T23:07:49.437Z,14.14
2023-03-23T23:10:49.656Z,13.69
2023-03-23T23:13:53.262Z,13.71
2023-03-23T23:17:05.219Z,14.95
2023-03-23T23:20:33.540Z,16.00
2023-03-23T23:23:50.557Z,16.21
2023-03-23T23:27:10.952Z,15.26
2023-03-23T23:30:02.779Z,14.44
2023-03-23T23:33:21.029Z,13.87
2023-03-23T23:36:32.355Z,13.35
2023-03-23T23:40:07.144Z,12.87
2023-03-23T23:43:51.097Z,13.20
2023-03-23T23:47:03.321Z,14.73
2023-03-23T23:50:29.423Z,15.67
2023-03-23T23:53:35.381Z,16.33
2023-03-23T23:56:45.853Z,16.47
2023-03-23T23:59:52.720Z,15.56
